Time;durP1;ratioP1;P1;durP2;ratioP2;P2;SDS_P1;SDS_P2;PMS_P1;PMS_P2;Temp;Humidity;BMP_temperature;BMP_pressure;BME280_temperature;BME280_humidity;BME280_pressure;Samples;Min_cycle;Max_cycle;Signal;HPM_P1;HPM_P2
2022/05/09 00:00:27;;;;;;;4.77;3.30;;;9.80;77.50;;;;;;5133727;27;20311;-64
2022/05/09 00:02:55;;;;;;;8.10;3.23;;;9.80;80.80;;;;;;5134144;27;20209;-63
2022/05/09 00:05:25;;;;;;;6.30;2.97;;;9.80;81.20;;;;;;5133787;27;20289;-62
2022/05/09 00:07:54;;;;;;;8.20;3.40;;;9.80;81.60;;;;;;5133555;27;20217;-63
2022/05/09 00:10:23;;;;;;;7.07;3.23;;;9.80;82.60;;;;;;5133496;27;20275;-64
2022/05/09 00:12:50;;;;;;;7.40;3.00;;;9.80;84.40;;;;;;5133221;27;20683;-62
2022/05/09 00:15:18;;;;;;;5.83;3.80;;;9.70;85.10;;;;;;5133788;27;20204;-63
2022/05/09 00:17:45;;;;;;;6.07;3.57;;;9.70;87.00;;;;;;5133509;27;20613;-63
2022/05/09 00:20:12;;;;;;;9.50;3.53;;;9.70;88.20;;;;;;5133446;27;20281;-61
2022/05/09 00:22:51;;;;;;;6.43;3.50;;;9.70;90.50;;;;;;5133475;27;20277;-63
2022/05/09 00:25:20;;;;;;;6.20;3.70;;;9.60;91.50;;;;;;5133360;27;20282;-62
2022/05/09 00:27:48;;;;;;;6.00;4.10;;;9.50;94.30;;;;;;5132823;27;20281;-63
2022/05/09 00:30:14;;;;;;;7.50;4.47;;;9.50;99.20;;;;;;5133288;27;20711;-63
2022/05/09 00:32:41;;;;;;;7.20;4.40;;;9.50;99.90;;;;;;5133417;27;20270;-64
2022/05/09 00:35:10;;;;;;;5.93;4.00;;;9.40;99.90;;;;;;5133411;27;20621;-62
2022/05/09 00:37:37;;;;;;;7.63;4.00;;;9.40;99.90;;;;;;5133159;27;20235;-63
2022/05/09 00:40:05;;;;;;;7.03;4.20;;;9.40;99.90;;;;;;5132808;27;20251;-64
2022/05/09 00:42:34;;;;;;;6.40;3.73;;;9.40;99.90;;;;;;5133194;27;20541;-62
2022/05/09 00:45:01;;;;;;;6.37;4.57;;;9.30;99.90;;;;;;5133102;27;20230;-62
2022/05/09 00:47:27;;;;;;;8.50;4.83;;;9.30;99.90;;;;;;5132851;27;20225;-63
2022/05/09 00:50:00;;;;;;;9.17;3.90;;;9.30;99.90;;;;;;5132945;27;20210;-63
2022/05/09 00:52:31;;;;;;;9.30;4.50;;;9.30;99.90;;;;;;5132971;27;20762;-63
2022/05/09 00:55:01;;;;;;;10.37;5.07;;;9.30;99.90;;;;;;5133564;27;20199;-64
2022/05/09 00:57:33;;;;;;;9.77;4.73;;;9.30;99.90;;;;;;5132824;27;20207;-64
2022/05/09 01:00:07;;;;;;;10.97;4.43;;;9.30;99.90;;;;;;5133189;27;20267;-64
2022/05/09 01:02:35;;;;;;;10.07;4.73;;;9.20;99.90;;;;;;5132753;27;20199;-63
2022/05/09 01:05:02;;;;;;;11.60;4.93;;;9.20;99.90;;;;;;5132760;27;20674;-63
2022/05/09 01:07:30;;;;;;;7.07;4.13;;;9.10;99.90;;;;;;5132835;27;20264;-62
2022/05/09 01:09:57;;;;;;;7.40;4.60;;;9.10;99.90;;;;;;5132984;27;20208;-64
2022/05/09 01:12:29;;;;;;;8.70;4.53;;;9.10;99.90;;;;;;5132485;27;20284;-63
2022/05/09 01:14:57;;;;;;;7.77;4.60;;;9.00;99.90;;;;;;5132811;27;20289;-62
2022/05/09 01:17:25;;;;;;;7.10;4.50;;;8.90;99.90;;;;;;5132539;27;20206;-63
2022/05/09 01:19:55;;;;;;;13.97;4.90;;;8.80;99.90;;;;;;5132776;27;20206;-62
2022/05/09 01:22:25;;;;;;;10.37;4.70;;;8.80;99.90;;;;;;5133095;27;20214;-62
2022/05/09 01:24:53;;;;;;;9.00;4.57;;;8.80;99.90;;;;;;5132694;27;20252;-64
2022/05/09 01:27:21;;;;;;;6.10;4.10;;;8.80;99.90;;;;;;5133079;27;20263;-63
2022/05/09 01:29:54;;;;;;;8.60;4.43;;;8.80;99.90;;;;;;5133945;27;20207;-62
2022/05/09 01:32:25;;;;;;;11.80;5.00;;;8.80;99.90;;;;;;5133295;27;20614;-63
2022/05/09 01:34:56;;;;;;;6.33;4.20;;;8.80;99.90;;;;;;5133993;27;20286;-63
2022/05/09 01:37:25;;;;;;;8.23;4.53;;;8.80;99.90;;;;;;5133175;27;20202;-63
2022/05/09 01:39:51;;;;;;;8.30;4.80;;;8.60;99.90;;;;;;5133984;27;20232;-63
2022/05/09 01:42:18;;;;;;;7.67;4.73;;;8.60;99.90;;;;;;5136794;27;20657;-63
2022/05/09 01:44:45;;;;;;;7.63;4.00;;;8.50;99.90;;;;;;5136813;27;20207;-62
2022/05/09 01:49:56;;;;;;;17.53;5.00;;;8.50;99.90;;;;;;5136545;27;20210;-63
2022/05/09 01:52:24;;;;;;;7.77;4.30;;;8.60;99.90;;;;;;5136421;27;20836;-62
2022/05/09 01:54:50;;;;;;;12.50;4.53;;;8.60;99.90;;;;;;5136160;27;20243;-62
2022/05/09 01:57:17;;;;;;;10.13;4.53;;;8.60;99.90;;;;;;5136055;27;20574;-63
2022/05/09 01:59:45;;;;;;;9.60;4.70;;;8.60;99.90;;;;;;5136254;27;20256;-63
2022/05/09 02:02:14;;;;;;;10.83;4.47;;;8.60;99.90;;;;;;5136424;27;20203;-63
2022/05/09 02:04:42;;;;;;;8.10;4.37;;;8.50;99.90;;;;;;5136168;27;20256;-63
2022/05/09 02:07:10;;;;;;;7.00;4.70;;;8.50;99.90;;;;;;5135959;27;20198;-62
2022/05/09 02:09:43;;;;;;;9.40;4.73;;;8.50;99.90;;;;;;5135966;27;20207;-62
2022/05/09 02:12:11;;;;;;;5.90;4.10;;;8.50;99.90;;;;;;5135736;27;20284;-63
2022/05/09 02:14:38;;;;;;;8.87;5.07;;;8.40;99.90;;;;;;5136075;27;20207;-63
2022/05/09 02:17:06;;;;;;;10.20;4.57;;;8.40;99.90;;;;;;5135710;27;20294;-63
2022/05/09 02:19:34;;;;;;;8.60;4.63;;;8.40;99.90;;;;;;5136169;27;20203;-63
2022/05/09 02:22:01;;;;;;;16.17;5.13;;;8.30;99.90;;;;;;5135789;27;20223;-63
2022/05/09 02:24:28;;;;;;;5.17;4.07;;;8.20;99.90;;;;;;5136167;27;20320;-63
2022/05/09 02:26:56;;;;;;;10.77;4.20;;;8.20;99.90;;;;;;5135344;27;20207;-63
2022/05/09 02:29:23;;;;;;;10.93;5.10;;;8.20;99.90;;;;;;5135783;27;20669;-63
2022/05/09 02:31:50;;;;;;;12.67;5.03;;;8.20;99.90;;;;;;5135501;27;20706;-64
2022/05/09 02:34:17;;;;;;;9.90;5.07;;;8.30;99.90;;;;;;5135580;27;20236;-63
2022/05/09 02:36:44;;;;;;;8.90;4.57;;;8.30;99.90;;;;;;5135368;27;20280;-63
2022/05/09 02:39:10;;;;;;;9.07;4.67;;;8.30;99.90;;;;;;5135510;27;20248;-64
2022/05/09 02:41:37;;;;;;;8.67;4.30;;;8.30;99.90;;;;;;5135517;27;20231;-63
2022/05/09 02:44:06;;;;;;;8.93;4.10;;;8.20;99.90;;;;;;5135322;27;20203;-63
2022/05/09 02:46:33;;;;;;;15.03;4.43;;;8.20;99.90;;;;;;5135168;27;20267;-64
2022/05/09 02:49:02;;;;;;;10.90;4.53;;;8.20;99.90;;;;;;5135116;27;20207;-62
2022/05/09 02:51:29;;;;;;;7.60;3.80;;;8.20;99.90;;;;;;5135250;27;20254;-63
2022/05/09 02:53:56;;;;;;;7.43;4.57;;;8.30;99.90;;;;;;5135146;27;20215;-61
2022/05/09 02:56:23;;;;;;;13.97;4.97;;;8.20;99.90;;;;;;5135078;27;20259;-63
2022/05/09 02:58:50;;;;;;;10.50;4.40;;;8.20;99.90;;;;;;5135029;27;20203;-62
2022/05/09 03:01:19;;;;;;;12.53;4.80;;;8.10;99.90;;;;;;5134931;27;20222;-63
2022/05/09 03:06:30;;;;;;;8.93;4.70;;;8.10;99.90;;;;;;5134606;27;20205;-63
2022/05/09 03:08:57;;;;;;;13.67;4.47;;;8.10;99.90;;;;;;5135132;27;20252;-64
2022/05/09 03:11:24;;;;;;;6.70;4.13;;;8.10;99.90;;;;;;5134397;27;20623;-62
2022/05/09 03:13:50;;;;;;;13.10;4.63;;;8.10;99.90;;;;;;5134837;27;20673;-63
2022/05/09 03:16:19;;;;;;;9.63;4.63;;;8.10;99.90;;;;;;5134326;27;20207;-63
2022/05/09 03:18:47;;;;;;;8.47;4.70;;;8.00;99.90;;;;;;5134870;27;20264;-62
2022/05/09 03:21:14;;;;;;;8.80;4.60;;;8.00;99.90;;;;;;5134757;27;20219;-63
2022/05/09 03:23:40;;;;;;;10.87;5.30;;;8.00;99.90;;;;;;5134425;27;20263;-63
2022/05/09 03:26:07;;;;;;;14.17;5.17;;;8.00;99.90;;;;;;5134463;27;20221;-63
2022/05/09 03:28:34;;;;;;;9.07;4.53;;;8.10;99.90;;;;;;5134459;27;20267;-63
2022/05/09 03:31:00;;;;;;;7.83;4.70;;;8.10;99.90;;;;;;5134673;27;20226;-62
2022/05/09 03:33:28;;;;;;;12.27;4.93;;;8.10;99.90;;;;;;5134635;27;20227;-63
2022/05/09 03:35:56;;;;;;;10.60;4.73;;;8.10;99.90;;;;;;5133785;27;20247;-63
2022/05/09 03:38:23;;;;;;;10.07;4.87;;;8.20;99.90;;;;;;5134741;27;20628;-63
2022/05/09 03:40:49;;;;;;;10.20;4.20;;;8.20;99.90;;;;;;5137123;27;20227;-63
2022/05/09 03:43:16;;;;;;;6.33;4.40;;;8.30;99.90;;;;;;5135095;27;20326;-63
2022/05/09 03:45:46;;;;;;;9.47;4.50;;;8.30;99.90;;;;;;5134451;27;20556;-62
2022/05/09 03:48:12;;;;;;;9.80;4.60;;;8.30;99.90;;;;;;5134107;27;20199;-64
2022/05/09 03:50:40;;;;;;;9.93;5.03;;;8.30;99.90;;;;;;5134147;27;20252;-63
2022/05/09 03:53:07;;;;;;;8.00;4.60;;;8.30;99.90;;;;;;5134264;27;20287;-63
2022/05/09 03:55:34;;;;;;;7.43;4.37;;;8.30;99.90;;;;;;5133992;27;20199;-63
2022/05/09 03:58:01;;;;;;;8.60;4.70;;;8.30;99.90;;;;;;5133391;27;20203;-64
2022/05/09 04:00:32;;;;;;;8.47;4.40;;;8.30;99.90;;;;;;5133762;27;20713;-63
2022/05/09 04:02:59;;;;;;;10.70;4.73;;;8.30;99.90;;;;;;5133328;27;20205;-63
2022/05/09 04:05:30;;;;;;;10.40;5.03;;;8.40;99.90;;;;;;5134083;27;20340;-62
2022/05/09 04:08:00;;;;;;;10.17;5.27;;;8.40;99.90;;;;;;5133743;27;20590;-63
2022/05/09 04:10:29;;;;;;;7.33;4.93;;;8.40;99.90;;;;;;5133608;27;20227;-63
2022/05/09 04:12:56;;;;;;;10.37;5.03;;;8.40;99.90;;;;;;5133879;27;20283;-62
2022/05/09 04:18:07;;;;;;;10.73;5.27;;;8.40;99.90;;;;;;5133413;27;20576;-62
2022/05/09 04:20:34;;;;;;;7.60;4.80;;;8.30;99.90;;;;;;5133182;27;20223;-62
2022/05/09 04:23:02;;;;;;;10.03;5.20;;;8.30;99.90;;;;;;5133485;27;20195;-63
2022/05/09 04:25:31;;;;;;;11.67;4.50;;;8.30;99.90;;;;;;5133432;27;20252;-64
2022/05/09 04:27:58;;;;;;;10.53;4.57;;;8.40;99.90;;;;;;5133320;27;20295;-63
2022/05/09 04:30:25;;;;;;;11.40;5.30;;;8.40;99.90;;;;;;5133233;27;20314;-63
2022/05/09 04:32:52;;;;;;;9.73;4.57;;;8.50;99.90;;;;;;5133205;27;20251;-63
2022/05/09 04:35:20;;;;;;;10.93;5.00;;;8.50;99.90;;;;;;5131814;27;20637;-65
2022/05/09 04:37:48;;;;;;;11.30;4.97;;;8.50;99.90;;;;;;5131582;27;20207;-63
2022/05/09 04:40:18;;;;;;;10.77;5.20;;;8.60;99.90;;;;;;5132810;27;20229;-63
2022/05/09 04:42:45;;;;;;;8.13;5.30;;;8.70;99.90;;;;;;5132955;27;20621;-64
2022/05/09 04:45:14;;;;;;;6.70;5.13;;;8.70;99.90;;;;;;5133100;27;20207;-63
2022/05/09 04:47:42;;;;;;;12.00;6.13;;;8.80;99.90;;;;;;5132413;27;20874;-63
2022/05/09 04:50:12;;;;;;;13.60;5.80;;;8.90;99.90;;;;;;5132630;27;20321;-63
2022/05/09 04:52:39;;;;;;;12.87;5.37;;;8.90;99.90;;;;;;5132897;27;20223;-63
2022/05/09 04:55:07;;;;;;;8.57;4.90;;;9.00;99.90;;;;;;5132760;27;20207;-63
2022/05/09 04:57:35;;;;;;;11.23;5.67;;;9.10;99.90;;;;;;5132554;27;20203;-63
2022/05/09 05:00:03;;;;;;;9.83;5.50;;;9.10;99.90;;;;;;5132500;27;20261;-64
2022/05/09 05:02:29;;;;;;;8.37;5.63;;;9.20;99.90;;;;;;5132747;27;20207;-63
2022/05/09 05:04:56;;;;;;;12.93;6.43;;;9.30;99.90;;;;;;5132835;27;20804;-64
2022/05/09 05:07:23;;;;;;;14.20;6.07;;;9.40;99.90;;;;;;5132216;27;20235;-63
2022/05/09 05:09:49;;;;;;;7.87;4.80;;;9.50;99.90;;;;;;5132828;27;20611;-63
2022/05/09 05:12:16;;;;;;;15.70;5.57;;;9.60;99.90;;;;;;5132280;27;20628;-63
2022/05/09 05:14:44;;;;;;;11.93;5.53;;;9.70;99.90;;;;;;5135035;27;20205;-63
2022/05/09 05:17:11;;;;;;;11.27;5.67;;;9.80;99.90;;;;;;5136235;27;20291;-63
2022/05/09 05:19:40;;;;;;;10.37;5.20;;;9.80;99.90;;;;;;5136891;27;20671;-63
2022/05/09 05:22:08;;;;;;;10.80;6.33;;;9.90;99.90;;;;;;5124804;27;20618;-63
2022/05/09 05:24:36;;;;;;;11.73;5.87;;;10.00;99.90;;;;;;5115037;28;20208;-63
2022/05/09 05:27:04;;;;;;;8.77;5.63;;;10.00;99.90;;;;;;5115418;28;20259;-63
2022/05/09 05:29:31;;;;;;;8.73;5.43;;;10.10;99.90;;;;;;5115208;28;20261;-64
2022/05/09 05:31:59;;;;;;;10.27;5.93;;;10.00;99.90;;;;;;5115985;28;20229;-64
2022/05/09 05:34:26;;;;;;;11.27;5.93;;;10.10;99.90;;;;;;5115324;27;20254;-63
2022/05/09 05:36:54;;;;;;;13.73;5.90;;;10.20;99.90;;;;;;5114790;27;20740;-63
2022/05/09 05:39:21;;;;;;;12.37;5.80;;;10.20;99.90;;;;;;5115560;27;20293;-63
2022/05/09 05:41:48;;;;;;;8.03;5.70;;;10.30;99.90;;;;;;5130120;27;20229;-63
2022/05/09 05:44:14;;;;;;;15.03;6.20;;;10.40;99.90;;;;;;5135732;27;20212;-63
2022/05/09 05:46:42;;;;;;;9.60;5.97;;;10.40;99.90;;;;;;5135735;27;20212;-63
2022/05/09 05:49:10;;;;;;;9.63;5.77;;;10.40;99.90;;;;;;5135587;27;20209;-63
2022/05/09 05:51:37;;;;;;;11.33;5.83;;;10.50;99.90;;;;;;5136705;27;20707;-63
2022/05/09 05:54:04;;;;;;;9.70;6.23;;;10.50;99.90;;;;;;5138106;27;20280;-63
2022/05/09 05:56:31;;;;;;;11.40;5.83;;;10.60;99.90;;;;;;5138209;27;20220;-63
2022/05/09 05:58:58;;;;;;;11.30;6.17;;;10.60;99.90;;;;;;5136940;27;20271;-59
2022/05/09 06:01:24;;;;;;;11.50;5.80;;;10.60;99.90;;;;;;5135763;27;20230;-63
2022/05/09 06:03:52;;;;;;;10.23;5.93;;;10.70;99.90;;;;;;5135516;27;20254;-59
2022/05/09 06:06:20;;;;;;;16.03;6.00;;;10.90;99.90;;;;;;5135077;27;20300;-62
2022/05/09 06:08:48;;;;;;;11.60;6.40;;;11.00;99.90;;;;;;5135407;27;20629;-62
2022/05/09 06:11:14;;;;;;;10.73;5.87;;;11.10;99.90;;;;;;5135030;27;20241;-59
2022/05/09 06:13:42;;;;;;;13.67;6.73;;;11.30;99.90;;;;;;5134790;27;20226;-62
2022/05/09 06:16:09;;;;;;;12.90;6.53;;;11.40;99.90;;;;;;5135324;27;20255;-63
2022/05/09 06:18:36;;;;;;;12.20;6.27;;;11.40;99.90;;;;;;5134857;27;20279;-61
2022/05/09 06:21:03;;;;;;;16.97;6.20;;;11.50;99.90;;;;;;5135294;27;20276;-62
2022/05/09 06:23:32;;;;;;;15.67;6.60;;;11.60;99.90;;;;;;5134897;27;20209;-61
2022/05/09 06:26:00;;;;;;;10.43;6.03;;;11.80;99.90;;;;;;5134193;27;20203;-60
2022/05/09 06:28:26;;;;;;;17.03;5.60;;;11.90;99.90;;;;;;5135358;27;20252;-61
2022/05/09 06:30:53;;;;;;;16.53;5.70;;;12.00;99.90;;;;;;5134896;27;20234;-63
2022/05/09 06:33:24;;;;;;;11.57;5.87;;;12.20;99.90;;;;;;5134614;27;20264;-64
2022/05/09 06:35:52;;;;;;;11.67;5.50;;;12.30;99.90;;;;;;5134352;27;20570;-64
2022/05/09 06:38:19;;;;;;;9.90;5.10;;;12.50;99.90;;;;;;5134897;27;20266;-65
2022/05/09 06:40:48;;;;;;;8.77;4.80;;;12.60;99.90;;;;;;5134525;27;20276;-65
2022/05/09 06:43:14;;;;;;;14.00;5.60;;;12.80;99.90;;;;;;5134527;27;20260;-64
2022/05/09 06:45:42;;;;;;;12.30;4.83;;;13.00;99.90;;;;;;5134769;27;20219;-63
2022/05/09 06:48:10;;;;;;;11.10;5.53;;;13.10;99.90;;;;;;5133970;27;20199;-63
2022/05/09 06:50:38;;;;;;;7.10;4.80;;;13.30;99.90;;;;;;5134897;27;20230;-63
2022/05/09 06:53:04;;;;;;;10.47;5.03;;;13.50;99.90;;;;;;5134686;27;20225;-65
2022/05/09 06:55:31;;;;;;;10.40;6.10;;;13.60;99.90;;;;;;5134753;27;20205;-64
2022/05/09 06:57:59;;;;;;;11.43;5.20;;;13.80;99.90;;;;;;5134679;27;20223;-64
2022/05/09 07:00:27;;;;;;;11.73;4.70;;;14.00;99.90;;;;;;5134239;27;20282;-63
2022/05/09 07:02:54;;;;;;;10.77;4.90;;;14.20;99.90;;;;;;5134916;27;20197;-63
2022/05/09 07:05:22;;;;;;;8.70;4.80;;;14.30;99.90;;;;;;5134465;27;20239;-64
2022/05/09 07:07:50;;;;;;;10.50;5.27;;;14.50;99.90;;;;;;5133875;27;20653;-64
2022/05/09 07:10:18;;;;;;;8.33;4.90;;;14.70;99.90;;;;;;5134373;27;20222;-65
2022/05/09 07:12:46;;;;;;;10.50;5.03;;;14.80;99.90;;;;;;5133702;27;20615;-64
2022/05/09 07:15:16;;;;;;;9.57;4.83;;;14.90;99.90;;;;;;5134166;27;20260;-63
2022/05/09 07:17:45;;;;;;;9.60;4.40;;;15.10;99.90;;;;;;5133762;27;20210;-64
2022/05/09 07:20:13;;;;;;;10.27;4.80;;;15.30;99.90;;;;;;5134518;27;20601;-64
2022/05/09 07:22:39;;;;;;;12.03;5.10;;;15.50;99.90;;;;;;5134333;27;20264;-63
2022/05/09 07:25:08;;;;;;;10.53;4.93;;;15.60;99.90;;;;;;5133147;27;20240;-62
2022/05/09 07:27:35;;;;;;;6.50;4.33;;;15.80;99.90;;;;;;5133903;27;20662;-61
2022/05/09 07:30:01;;;;;;;8.47;4.70;;;15.90;99.90;;;;;;5133444;27;20203;-63
2022/05/09 07:32:29;;;;;;;10.53;5.00;;;16.00;99.90;;;;;;5133690;27;20242;-63
2022/05/09 07:34:56;;;;;;;8.00;4.53;;;16.10;99.90;;;;;;5133585;27;20230;-63
2022/05/09 07:37:22;;;;;;;8.03;4.47;;;16.20;99.90;;;;;;5132294;27;20206;-62
2022/05/09 07:39:49;;;;;;;6.20;4.00;;;16.20;99.90;;;;;;5133429;27;20203;-62
2022/05/09 07:42:16;;;;;;;7.03;4.67;;;16.10;99.90;;;;;;5133464;27;20239;-63
2022/05/09 07:44:43;;;;;;;11.20;4.80;;;16.30;99.90;;;;;;5133416;27;20213;-63
2022/05/09 07:47:10;;;;;;;7.53;4.50;;;16.40;99.90;;;;;;5132813;27;20668;-62
2022/05/09 07:49:38;;;;;;;8.93;4.73;;;16.40;99.90;;;;;;5133177;27;20215;-63
2022/05/09 07:52:08;;;;;;;7.87;3.73;;;16.70;99.90;;;;;;5133271;27;20218;-62
2022/05/09 07:54:35;;;;;;;10.47;4.80;;;16.90;99.90;;;;;;5133079;27;20232;-62
2022/05/09 07:57:01;;;;;;;8.17;4.40;;;17.10;99.90;;;;;;5132621;27;20211;-63
2022/05/09 07:59:29;;;;;;;6.67;4.50;;;17.30;99.90;;;;;;5132919;27;20259;-62
2022/05/09 08:01:56;;;;;;;9.13;4.47;;;17.50;99.90;;;;;;5123481;27;20297;-62
2022/05/09 08:04:23;;;;;;;7.53;4.00;;;17.70;99.90;;;;;;5126253;27;20195;-64
2022/05/09 08:06:51;;;;;;;6.97;4.17;;;17.90;99.90;;;;;;5132131;27;20566;-63
2022/05/09 08:09:18;;;;;;;6.73;4.10;;;18.00;99.90;;;;;;5132999;27;20582;-63
2022/05/09 08:11:45;;;;;;;9.33;4.43;;;18.20;99.90;;;;;;5132588;27;20231;-63
2022/05/09 08:14:12;;;;;;;8.27;4.07;;;18.30;99.90;;;;;;5132291;27;20795;-64
2022/05/09 08:16:39;;;;;;;8.60;3.93;;;18.50;99.90;;;;;;5133337;27;20209;-65
2022/05/09 08:19:06;;;;;;;7.73;3.90;;;18.70;99.90;;;;;;5132642;27;20199;-65
2022/05/09 08:21:36;;;;;;;7.03;4.77;;;18.80;99.90;;;;;;5133439;27;20279;-64
2022/05/09 08:24:04;;;;;;;5.53;3.90;;;18.90;99.90;;;;;;5132055;27;20226;-65
2022/05/09 08:26:31;;;;;;;9.33;4.10;;;18.80;99.90;;;;;;5132430;27;20259;-64
2022/05/09 08:28:58;;;;;;;6.50;3.90;;;18.80;99.90;;;;;;5133327;27;20724;-64
2022/05/09 08:31:25;;;;;;;7.97;4.43;;;19.00;99.90;;;;;;5132411;27;20223;-64
2022/05/09 08:33:56;;;;;;;7.47;4.23;;;19.00;99.90;;;;;;5132492;27;20299;-64
2022/05/09 08:39:09;;;;;;;6.23;4.17;;;19.00;99.90;;;;;;5132243;27;20688;-63
2022/05/09 08:41:44;;;;;;;6.97;4.00;;;19.10;99.90;;;;;;5131964;27;20234;-62
2022/05/09 08:44:20;;;;;;;10.40;4.30;;;19.30;99.90;;;;;;5132079;27;20202;-64
2022/05/09 08:47:09;;;;;;;6.60;4.70;;;19.50;99.90;;;;;;5132085;27;20587;-64
2022/05/09 08:49:46;;;;;;;9.00;4.53;;;19.50;99.90;;;;;;5131478;27;20207;-62
2022/05/09 08:52:22;;;;;;;7.63;4.83;;;19.70;99.90;;;;;;5132299;27;20263;-62
2022/05/09 08:54:52;;;;;;;6.63;3.83;;;19.80;99.90;;;;;;5131956;27;20706;-63
2022/05/09 08:57:23;;;;;;;7.27;4.17;;;20.00;99.90;;;;;;5131916;27;20691;-64
2022/05/09 08:59:56;;;;;;;6.57;4.13;;;20.10;99.90;;;;;;5131704;27;20203;-63
2022/05/09 09:02:31;;;;;;;7.73;4.80;;;20.30;99.90;;;;;;5132163;27;20260;-64
2022/05/09 09:04:58;;;;;;;9.63;4.60;;;20.00;99.90;;;;;;5132136;27;20194;-63
2022/05/09 09:07:53;;;;;;;6.47;4.40;;;19.90;99.90;;;;;;5131562;27;20565;-63
2022/05/09 09:10:30;;;;;;;7.10;4.80;;;20.00;99.90;;;;;;5131864;27;20254;-63
2022/05/09 09:13:14;;;;;;;11.03;4.43;;;20.20;99.90;;;;;;5131571;27;20772;-62
2022/05/09 09:15:52;;;;;;;9.60;4.83;;;20.40;99.90;;;;;;5132052;27;20195;-64
2022/05/09 09:18:36;;;;;;;7.23;4.43;;;20.20;99.90;;;;;;5131867;27;20202;-63
2022/05/09 09:21:07;;;;;;;8.00;5.10;;;20.30;99.90;;;;;;5131877;27;20238;-64
2022/05/09 09:23:51;;;;;;;7.93;5.10;;;20.50;99.90;;;;;;5131901;27;20252;-64
2022/05/09 09:26:28;;;;;;;5.60;4.63;;;20.50;99.90;;;;;;5131364;27;20202;-63
2022/05/09 09:29:00;;;;;;;9.80;5.63;;;20.70;99.90;;;;;;5131897;27;20247;-65
2022/05/09 09:31:30;;;;;;;8.03;5.50;;;20.80;99.90;;;;;;5131686;27;20230;-65
2022/05/09 09:34:00;;;;;;;12.97;5.70;;;20.30;99.90;;;;;;5131766;27;20226;-62
2022/05/09 09:36:35;;;;;;;8.77;5.57;;;20.10;99.90;;;;;;5131503;27;20251;-63
2022/05/09 09:39:10;;;;;;;8.40;5.83;;;20.10;99.90;;;;;;5131780;27;20209;-64
2022/05/09 09:41:39;;;;;;;10.63;5.80;;;20.30;99.90;;;;;;5131349;27;20230;-64
2022/05/09 09:44:10;;;;;;;6.87;4.63;;;20.50;99.90;;;;;;5131861;27;20629;-62
2022/05/09 09:47:05;;;;;;;10.80;5.60;;;20.70;99.90;;;;;;5131568;27;20265;-64
2022/05/09 09:49:33;;;;;;;8.43;5.50;;;21.00;99.90;;;;;;5131531;27;20578;-65
2022/05/09 09:52:00;;;;;;;7.10;5.00;;;20.90;99.90;;;;;;5131251;27;20223;-64
2022/05/09 09:54:30;;;;;;;8.60;4.90;;;21.20;99.90;;;;;;5131458;27;20231;-63
2022/05/09 09:57:15;;;;;;;7.47;5.40;;;21.30;99.90;;;;;;5131157;27;20199;-63
2022/05/09 09:59:41;;;;;;;7.67;5.50;;;21.00;99.90;;;;;;5131636;27;20207;-64
2022/05/09 10:02:16;;;;;;;8.87;5.23;;;20.80;99.90;;;;;;5133714;27;20713;-64
2022/05/09 10:04:43;;;;;;;8.23;5.30;;;20.80;99.90;;;;;;5135254;27;20554;-64
2022/05/09 10:07:13;;;;;;;8.37;5.63;;;20.90;99.90;;;;;;5134798;27;20626;-64
2022/05/09 10:09:42;;;;;;;6.80;5.10;;;20.70;99.90;;;;;;5134747;27;20230;-63
2022/05/09 10:12:22;;;;;;;8.67;4.87;;;20.70;99.90;;;;;;5134857;27;20231;-63
2022/05/09 10:14:50;;;;;;;8.20;5.37;;;21.00;99.90;;;;;;5134560;27;20279;-65
2022/05/09 10:17:21;;;;;;;5.73;4.83;;;21.10;99.90;;;;;;5135398;27;20259;-63
2022/05/09 10:19:50;;;;;;;8.83;5.40;;;21.30;99.90;;;;;;5137489;27;20199;-64
2022/05/09 10:25:09;;;;;;;8.93;6.10;;;21.80;99.90;;;;;;5137999;27;20271;-64
2022/05/09 10:27:38;;;;;;;8.57;5.80;;;22.00;99.90;;;;;;5134412;27;20673;-64
2022/05/09 10:30:08;;;;;;;10.47;5.50;;;22.00;99.90;;;;;;5134762;27;20214;-62
2022/05/09 10:32:45;;;;;;;10.37;5.63;;;22.10;99.90;;;;;;5134509;27;20673;-63
2022/05/09 10:35:18;;;;;;;22.07;14.07;;;22.20;99.90;;;;;;5134375;27;20758;-63
2022/05/09 10:37:50;;;;;;;7.50;5.50;;;22.20;99.90;;;;;;5133826;27;20206;-63
2022/05/09 10:40:22;;;;;;;8.37;5.40;;;22.30;99.90;;;;;;5134788;27;20219;-63
2022/05/09 10:42:55;;;;;;;7.57;5.10;;;22.30;99.90;;;;;;5134117;27;20289;-63
2022/05/09 10:45:25;;;;;;;6.80;5.47;;;22.10;99.90;;;;;;5134604;27;20571;-62
2022/05/09 10:47:55;;;;;;;10.43;5.00;;;22.10;99.90;;;;;;5134101;27;20628;-62
2022/05/09 10:50:28;;;;;;;7.97;6.07;;;22.20;99.90;;;;;;5134019;27;20637;-64
2022/05/09 10:53:12;;;;;;;11.07;5.47;;;22.30;99.90;;;;;;5134655;27;20199;-65
2022/05/09 10:55:43;;;;;;;6.50;5.63;;;22.70;99.90;;;;;;5133906;27;20218;-64
2022/05/09 10:58:18;;;;;;;8.37;5.00;;;22.00;99.90;;;;;;5134246;27;20225;-63
2022/05/09 11:00:50;;;;;;;9.30;5.83;;;22.20;99.90;;;;;;5133710;27;20273;-65
2022/05/09 11:03:23;;;;;;;6.93;5.40;;;22.60;99.90;;;;;;5134415;27;20284;-62
2022/05/09 11:06:22;;;;;;;8.20;5.30;;;22.80;99.90;;;;;;5134228;27;20214;-64
2022/05/09 11:09:07;;;;;;;10.57;5.30;;;23.00;99.90;;;;;;5134452;27;20259;-63
2022/05/09 11:11:41;;;;;;;8.90;5.63;;;22.80;99.90;;;;;;5133839;27;20303;-63
2022/05/09 11:14:19;;;;;;;10.67;5.53;;;22.90;99.90;;;;;;5133413;27;20282;-65
2022/05/09 11:17:02;;;;;;;8.03;5.60;;;23.10;99.90;;;;;;5133986;27;20211;-64
2022/05/09 11:19:42;;;;;;;7.27;5.07;;;23.30;99.90;;;;;;5133363;27;20211;-64
2022/05/09 11:22:18;;;;;;;6.57;5.57;;;23.30;99.90;;;;;;5133711;27;20226;-64
2022/05/09 11:25:01;;;;;;;9.10;5.73;;;22.90;99.90;;;;;;5133420;27;20202;-64
2022/05/09 11:27:43;;;;;;;8.17;4.83;;;23.00;99.90;;;;;;5133664;27;20263;-63
2022/05/09 11:30:24;;;;;;;5.83;4.47;;;23.20;99.90;;;;;;5133725;27;20291;-63
2022/05/09 11:32:59;;;;;;;6.93;4.77;;;23.40;99.90;;;;;;5133410;27;20572;-64
2022/05/09 11:35:32;;;;;;;7.30;4.63;;;23.60;99.90;;;;;;5133214;27;20222;-63
2022/05/09 11:38:33;;;;;;;10.23;4.77;;;23.60;99.90;;;;;;5132844;27;20207;-63
2022/05/09 11:41:08;;;;;;;9.33;4.90;;;23.10;99.90;;;;;;5133477;27;20253;-64
2022/05/09 11:43:58;;;;;;;6.40;5.03;;;23.00;99.90;;;;;;5132853;27;20251;-63
2022/05/09 11:46:40;;;;;;;9.23;5.13;;;23.20;99.90;;;;;;5133199;27;20203;-63
2022/05/09 11:49:20;;;;;;;6.00;5.10;;;23.60;99.90;;;;;;5133165;27;20647;-64
2022/05/09 11:51:49;;;;;;;7.43;5.30;;;23.20;99.90;;;;;;5133399;27;20720;-63
2022/05/09 11:54:19;;;;;;;5.37;4.50;;;23.00;99.90;;;;;;5133062;27;20203;-62
2022/05/09 11:56:48;;;;;;;8.43;5.07;;;23.40;99.90;;;;;;5132847;27;20568;-63
2022/05/09 11:59:22;;;;;;;8.27;4.23;;;23.70;99.90;;;;;;5132983;27;20271;-65
2022/05/09 12:01:59;;;;;;;6.30;4.30;;;23.70;99.90;;;;;;5132733;27;20227;-63
2022/05/09 12:04:35;;;;;;;7.03;4.47;;;23.60;99.90;;;;;;5133041;27;20580;-63
2022/05/09 12:07:30;;;;;;;7.53;4.57;;;23.70;99.90;;;;;;5132670;27;20209;-64
2022/05/09 12:10:03;;;;;;;6.13;4.47;;;23.70;99.90;;;;;;5132980;27;20238;-63
2022/05/09 12:12:49;;;;;;;4.73;3.93;;;23.90;99.90;;;;;;5132646;27;20218;-63
2022/05/09 12:15:50;;;;;;;6.70;4.33;;;23.90;99.90;;;;;;5132312;27;20780;-63
2022/05/09 12:18:31;;;;;;;9.30;4.30;;;23.90;99.90;;;;;;5132676;27;20689;-63
2022/05/09 12:21:18;;;;;;;5.33;3.90;;;23.80;99.90;;;;;;5132880;27;20656;-63
2022/05/09 12:24:11;;;;;;;5.77;3.70;;;23.60;99.90;;;;;;5131976;27;20207;-63
2022/05/09 12:26:39;;;;;;;8.37;4.40;;;23.40;99.90;;;;;;5132141;27;20207;-62
2022/05/09 12:29:51;;;;;;;5.90;3.83;;;23.20;99.90;;;;;;5132740;27;20203;-62
2022/05/09 12:32:19;;;;;;;6.77;4.60;;;23.20;99.90;;;;;;5132113;27;20207;-62
2022/05/09 12:34:48;;;;;;;6.17;4.27;;;23.10;99.90;;;;;;5131259;27;20639;-63
2022/05/09 12:37:22;;;;;;;6.37;3.90;;;22.90;99.90;;;;;;5132005;27;20210;-65
2022/05/09 12:39:52;;;;;;;6.47;4.33;;;22.90;99.90;;;;;;5130997;27;20866;-67
2022/05/09 12:42:33;;;;;;;7.13;4.30;;;23.20;99.90;;;;;;5132480;27;20585;-65
2022/05/09 12:45:03;;;;;;;6.77;4.00;;;23.50;99.90;;;;;;5131685;27;20199;-63
2022/05/09 12:47:34;;;;;;;4.73;3.50;;;23.80;99.90;;;;;;5132406;27;20248;-66
2022/05/09 12:50:06;;;;;;;7.67;3.93;;;24.10;99.90;;;;;;5132224;27;20209;-64
2022/05/09 12:52:35;;;;;;;9.70;3.60;;;24.10;99.90;;;;;;5132711;27;20733;-63
2022/05/09 12:57:47;;;;;;;7.23;3.73;;;23.80;99.90;;;;;;5132289;27;20201;-65
2022/05/09 13:00:17;;;;;;;6.80;3.90;;;23.90;99.90;;;;;;5132475;27;20287;-65
2022/05/09 13:02:44;;;;;;;4.30;3.53;;;24.00;99.90;;;;;;5132130;27;20549;-66
2022/05/09 13:05:13;;;;;;;4.07;3.67;;;24.10;99.90;;;;;;5131873;27;20202;-66
2022/05/09 13:07:57;;;;;;;5.00;3.67;;;24.40;99.90;;;;;;5131634;27;20213;-68
2022/05/09 13:10:24;;;;;;;4.80;3.23;;;24.60;99.90;;;;;;5132451;27;20604;-66
2022/05/09 13:12:58;;;;;;;5.33;3.50;;;24.40;99.90;;;;;;5132211;27;20236;-67
2022/05/09 13:15:26;;;;;;;4.40;3.60;;;24.60;99.90;;;;;;5132156;27;20258;-66
2022/05/09 13:17:59;;;;;;;5.03;3.27;;;24.80;99.90;;;;;;5132218;27;20206;-69
2022/05/09 13:20:29;;;;;;;6.03;3.47;;;24.80;99.90;;;;;;5131475;27;20309;-67